VIAR/ATQ METAR and TAF weather

Enter ICAO airport designator
Station Type Date Time Source
VIAR METAR 2019/06/16 05:00 UTC NOAA

VIAR 160500Z 24008KT 5000 HZ FEW040 32/17 Q1003 TEMPO 27020G35KT


Station Type Date Time Source
VIAR Decoded METAR 2019/06/16 05:00 UTC NOAA

Amritsar, India (VIAR) 31-38N 074-52E 234M
Jun 16, 2019 - 01:00 AM EDT / 2019.06.16 0500 UTC
Wind: from the WSW (240 degrees) at 9 MPH (8 KT):0
Visibility: 3 mile(s):0
Sky conditions: mostly clear
Weather: haze
Temperature: 89 F (32 C)
Dew Point: 62 F (17 C)
Relative Humidity: 40%
Pressure (altimeter): 29.62 in. Hg (1003 hPa)
ob: VIAR 160500Z 24008KT 5000 HZ FEW040 32/17 Q1003 TEMPO 27020G35KT
cycle: 5

Station Type Date Time Source
VIAR TAF 2019/06/15 18:27 UTC NOAA

TAF VIAR 151700Z 1518/1624 32015G25KT 2500 TSRA SCT035 BKN100 FEW040CB
BECMG 1600/1602 24005KT 3500 BR RA
BECMG 1609/1615 24010G25KT 2500 TSRA FEW040CB OVC080
BECMG 1617/1619 15008KT 3500 HZ RA

Example: see airport list